Time;durP1;ratioP1;P1;durP2;ratioP2;P2;SDS_P1;SDS_P2;PMS_P1;PMS_P2;Temp;Humidity;BMP_temperature;BMP_pressure;BME280_temperature;BME280_humidity;BME280_pressure;Samples;Min_cycle;Max_cycle;Signal;HPM_P1;HPM_P2
2022/05/06 00:01:45;;;;;;;5.20;2.72;;;;;;;12.55;100.00;99939.16;4922721;29;20027;-84
2022/05/06 00:04:11;;;;;;;4.05;2.78;;;;;;;12.63;100.00;99944.31;4922354;29;20023;-84
2022/05/06 00:06:38;;;;;;;3.83;2.83;;;;;;;12.62;100.00;99934.78;4926068;29;20519;-84
2022/05/06 00:09:04;;;;;;;6.20;3.08;;;;;;;12.64;100.00;99948.59;4924680;29;20032;-83
2022/05/06 00:11:31;;;;;;;7.97;2.97;;;;;;;12.58;100.00;99930.91;4921221;29;20055;-86
2022/05/06 00:13:57;;;;;;;6.50;3.22;;;;;;;12.59;100.00;99931.69;4924917;29;20028;-84
2022/05/06 00:16:24;;;;;;;5.63;3.13;;;;;;;12.45;100.00;99938.63;4926076;29;20065;-85
2022/05/06 00:18:50;;;;;;;5.68;2.90;;;;;;;12.58;100.00;99941.44;4922060;29;20032;-84
2022/05/06 00:21:16;;;;;;;5.40;3.10;;;;;;;12.69;100.00;99922.50;4923837;29;20082;-85
2022/05/06 00:23:42;;;;;;;3.72;2.60;;;;;;;12.75;100.00;99931.47;4920468;29;20031;-88
2022/05/06 00:26:09;;;;;;;3.75;2.53;;;;;;;12.88;100.00;99922.88;4923122;29;20032;-85
2022/05/06 00:28:35;;;;;;;5.75;2.60;;;;;;;12.90;100.00;99930.63;4921743;29;20043;-86
2022/05/06 00:31:06;;;;;;;5.50;2.33;;;;;;;12.93;100.00;99927.59;4916578;29;20035;-84
2022/05/06 00:33:33;;;;;;;7.88;2.65;;;;;;;13.05;100.00;99920.81;4918399;29;20040;-85
2022/05/06 00:36:00;;;;;;;3.50;2.50;;;;;;;13.18;100.00;99919.31;4921733;29;20032;-85
2022/05/06 00:38:27;;;;;;;3.83;2.17;;;;;;;13.16;100.00;99908.94;4923661;29;20028;-85
2022/05/06 00:40:53;;;;;;;7.60;2.60;;;;;;;13.18;100.00;99914.84;4927249;29;20035;-86
2022/05/06 00:43:26;;;;;;;2.60;2.15;;;;;;;13.18;100.00;99906.97;4924970;29;20080;-85
2022/05/06 00:45:53;;;;;;;;;;;;;;;13.31;100.00;99906.25;4925380;29;20050;-85
2022/05/06 00:48:22;;;;;;;4.68;2.60;;;;;;;13.20;100.00;99914.66;4908466;29;19927;-85
2022/05/06 00:50:49;;;;;;;3.47;2.35;;;;;;;13.24;100.00;99898.28;4924483;29;20039;-83
2022/05/06 00:53:16;;;;;;;3.25;1.80;;;;;;;13.31;100.00;99921.22;4925542;29;20549;-85
2022/05/06 00:55:42;;;;;;;5.25;2.10;;;;;;;13.47;100.00;99910.44;4927823;29;20480;-85
2022/05/06 00:58:09;;;;;;;3.20;2.20;;;;;;;13.46;100.00;99907.97;4925279;29;20038;-84
2022/05/06 01:00:34;;;;;;;3.63;2.58;;;;;;;13.52;100.00;99910.66;4926050;29;20038;-85
2022/05/06 01:03:00;;;;;;;4.80;3.28;;;;;;;13.59;100.00;99909.91;4922751;29;20028;-84
2022/05/06 01:05:26;;;;;;;9.18;4.43;;;;;;;13.47;100.00;99905.16;4925630;29;20101;-85
2022/05/06 01:07:53;;;;;;;6.00;4.00;;;;;;;13.75;100.00;99899.03;4921698;29;20070;-83
2022/05/06 01:10:20;;;;;;;7.22;3.60;;;;;;;13.81;100.00;99905.38;4924885;29;20043;-84
2022/05/06 01:12:47;;;;;;;8.27;3.50;;;;;;;13.77;100.00;99914.69;4926824;29;20384;-83
2022/05/06 01:15:42;;;;;;;8.27;3.90;;;;;;;13.76;100.00;99903.34;4919913;29;20483;-84
2022/05/06 01:18:13;;;;;;;10.90;4.15;;;;;;;13.49;100.00;99900.50;4914585;29;20036;-83
2022/05/06 01:20:44;;;;;;;9.50;4.43;;;;;;;13.56;100.00;99903.19;4922144;29;20169;-83
2022/05/06 01:23:11;;;;;;;11.15;3.67;;;;;;;13.52;100.00;99892.22;4925738;29;20036;-84
2022/05/06 01:25:37;;;;;;;7.93;4.13;;;;;;;13.81;100.00;99893.00;4923872;29;20056;-84
2022/05/06 01:28:05;;;;;;;8.57;4.10;;;;;;;13.70;100.00;99904.09;4921788;29;20032;-85
2022/05/06 01:30:38;;;;;;;6.28;3.72;;;;;;;13.73;100.00;99893.16;4911578;29;20047;-83
2022/05/06 01:33:08;;;;;;;7.05;3.53;;;;;;;13.66;100.00;99884.38;4918645;29;20034;-84
2022/05/06 01:35:48;;;;;;;5.70;3.72;;;;;;;13.74;100.00;99886.84;4925328;29;20058;-85
2022/05/06 01:38:24;;;;;;;11.77;4.43;;;;;;;13.73;100.00;99885.22;4921151;29;20056;-84
2022/05/06 01:40:54;;;;;;;7.97;4.10;;;;;;;13.88;100.00;99889.56;4926620;29;20064;-85
2022/05/06 01:43:24;;;;;;;11.43;4.45;;;;;;;13.72;100.00;99886.25;4926615;29;20651;-85
2022/05/06 01:45:52;;;;;;;7.13;4.43;;;;;;;13.82;100.00;99880.59;4919319;29;20042;-85
2022/05/06 01:48:20;;;;;;;8.75;5.00;;;;;;;13.84;100.00;99883.88;4916995;29;20047;-85
2022/05/06 01:50:48;;;;;;;8.05;4.30;;;;;;;13.75;100.00;99891.13;4923337;29;20091;-84
2022/05/06 01:53:16;;;;;;;9.15;4.95;;;;;;;13.85;100.00;99883.69;4920316;29;20470;-85
2022/05/06 01:55:43;;;;;;;10.70;5.60;;;;;;;13.78;100.00;99882.84;4924131;29;20035;-85
2022/05/06 01:58:09;;;;;;;11.10;6.05;;;;;;;13.84;100.00;99889.16;4922794;29;20055;-85
2022/05/06 02:00:37;;;;;;;11.80;6.63;;;;;;;13.95;100.00;99885.13;4924030;29;20043;-84
2022/05/06 02:03:06;;;;;;;8.88;6.70;;;;;;;13.83;100.00;99887.50;4919532;29;20035;-84
2022/05/06 02:05:31;;;;;;;10.45;6.38;;;;;;;13.83;100.00;99882.25;4922131;29;20035;-85
2022/05/06 02:07:57;;;;;;;11.27;5.50;;;;;;;13.90;100.00;99888.38;4918708;29;20042;-86
2022/05/06 02:10:24;;;;;;;8.75;5.10;;;;;;;14.12;100.00;99885.63;4921423;29;20024;-85
2022/05/06 02:12:50;;;;;;;8.55;5.40;;;;;;;13.94;100.00;99889.63;4925099;29;20063;-84
2022/05/06 02:15:17;;;;;;;10.02;5.57;;;;;;;14.09;100.00;99891.31;4919578;29;20497;-86
2022/05/06 02:17:43;;;;;;;14.50;5.90;;;;;;;14.04;100.00;99883.97;4925943;29;20024;-87
2022/05/06 02:20:11;;;;;;;12.50;5.97;;;;;;;14.07;100.00;99891.50;4927599;29;20051;-83
2022/05/06 02:22:38;;;;;;;9.70;5.25;;;;;;;14.03;100.00;99887.63;4930307;29;20024;-85
2022/05/06 02:25:09;;;;;;;11.32;5.80;;;;;;;14.09;100.00;99889.47;4924145;29;20470;-84
2022/05/06 02:27:35;;;;;;;11.90;5.35;;;;;;;13.96;100.00;99884.94;4921484;29;20101;-85
2022/05/06 02:35:31;;;;;;;8.93;5.13;;;;;;;14.04;100.00;99883.16;4924458;29;20446;-84
2022/05/06 02:37:56;;;;;;;11.68;5.55;;;;;;;13.96;100.00;99889.44;4926735;29;20118;-85
2022/05/06 02:40:22;;;;;;;10.05;5.38;;;;;;;14.17;100.00;99882.41;4926851;29;20039;-83
2022/05/06 02:42:47;;;;;;;12.40;5.30;;;;;;;14.12;100.00;99886.44;4925812;29;20024;-83
2022/05/06 02:45:13;;;;;;;11.13;4.47;;;;;;;14.01;100.00;99889.66;4931900;29;20036;-84
2022/05/06 02:47:39;;;;;;;9.85;5.35;;;;;;;13.92;100.00;99893.44;4926057;29;20033;-84
2022/05/06 02:50:05;;;;;;;11.20;5.68;;;;;;;14.01;100.00;99879.09;4927416;29;20111;-84
2022/05/06 02:52:31;;;;;;;13.77;5.78;;;;;;;14.16;100.00;99878.94;4928686;29;20036;-84
2022/05/06 02:54:57;;;;;;;13.82;5.75;;;;;;;14.03;100.00;99892.06;4922990;29;20032;-84
2022/05/06 02:57:23;;;;;;;11.65;5.95;;;;;;;14.05;100.00;99885.59;4924134;29;20538;-84
2022/05/06 02:59:48;;;;;;;11.38;5.10;;;;;;;14.09;100.00;99897.38;4924844;29;20082;-84
2022/05/06 03:02:14;;;;;;;11.02;5.72;;;;;;;14.05;100.00;99890.06;4924112;29;20028;-84
2022/05/06 03:04:40;;;;;;;11.00;5.55;;;;;;;13.96;100.00;99884.16;4929221;29;20035;-85
2022/05/06 03:07:08;;;;;;;12.85;6.47;;;;;;;14.05;100.00;99890.88;4927862;29;20107;-83
2022/05/06 03:09:35;;;;;;;13.07;6.50;;;;;;;14.07;100.00;99894.13;4927905;29;20075;-85
2022/05/06 03:12:00;;;;;;;15.88;6.53;;;;;;;13.97;100.00;99883.94;4923876;29;20033;-83
2022/05/06 03:14:26;;;;;;;9.75;6.10;;;;;;;14.13;100.00;99882.78;4924331;29;20036;-84
2022/05/06 03:16:52;;;;;;;15.48;6.38;;;;;;;13.95;100.00;99885.13;4927715;29;20079;-83
2022/05/06 03:19:17;;;;;;;15.45;6.72;;;;;;;14.17;100.00;99888.50;4931415;29;20078;-85
2022/05/06 03:21:50;;;;;;;13.38;5.93;;;;;;;14.18;100.00;99876.13;4924268;29;20028;-85
2022/05/06 03:24:16;;;;;;;13.43;7.03;;;;;;;14.11;100.00;99874.25;4918924;29;20028;-85
2022/05/06 03:26:42;;;;;;;17.00;8.32;;;;;;;14.17;100.00;99871.84;4919813;29;20036;-84
2022/05/06 03:29:09;;;;;;;11.35;6.75;;;;;;;14.14;100.00;99873.06;4922024;29;20035;-84
2022/05/06 03:31:36;;;;;;;13.77;6.30;;;;;;;14.27;100.00;99867.00;4923165;29;20039;-85
2022/05/06 03:34:03;;;;;;;17.58;7.82;;;;;;;14.14;100.00;99875.69;4917436;29;20040;-85
2022/05/06 03:36:29;;;;;;;18.08;8.23;;;;;;;14.13;100.00;99872.22;4924619;29;20027;-84
2022/05/06 03:38:55;;;;;;;14.18;7.25;;;;;;;14.04;100.00;99862.84;4923734;29;20454;-84
2022/05/06 03:41:21;;;;;;;14.63;7.85;;;;;;;14.15;100.00;99872.03;4920090;29;20042;-83
2022/05/06 03:43:47;;;;;;;16.38;7.53;;;;;;;14.10;100.00;99869.97;4929133;29;20042;-84
2022/05/06 03:46:13;;;;;;;12.68;7.07;;;;;;;14.29;100.00;99859.69;4921483;29;20036;-84
2022/05/06 03:48:39;;;;;;;16.35;8.15;;;;;;;14.27;100.00;99861.72;4921069;29;20402;-84
2022/05/06 03:51:20;;;;;;;12.93;7.68;;;;;;;14.34;100.00;99862.53;4922780;29;20529;-84
2022/05/06 03:53:48;;;;;;;14.93;7.95;;;;;;;14.24;100.00;99859.47;4927710;29;20028;-83
2022/05/06 03:56:13;;;;;;;13.80;7.38;;;;;;;14.21;100.00;99854.59;4922179;29;20028;-84
2022/05/06 03:58:39;;;;;;;12.57;7.65;;;;;;;14.27;100.00;99859.06;4927860;29;20039;-84
2022/05/06 04:01:05;;;;;;;13.25;7.65;;;;;;;14.28;100.00;99868.63;4925468;29;20028;-84
2022/05/06 04:03:31;;;;;;;13.52;7.90;;;;;;;14.28;100.00;99858.88;4926072;29;20062;-84
2022/05/06 04:05:57;;;;;;;12.75;6.72;;;;;;;14.22;100.00;99850.94;4922803;29;20070;-84
2022/05/06 04:08:23;;;;;;;14.38;7.15;;;;;;;14.22;100.00;99848.31;4924401;29;20059;-85
2022/05/06 04:10:49;;;;;;;14.32;7.18;;;;;;;14.26;100.00;99844.25;4923734;29;20043;-85
2022/05/06 04:13:19;;;;;;;12.73;6.47;;;;;;;14.34;100.00;99838.78;4920233;29;20055;-83
2022/05/06 04:15:46;;;;;;;10.50;5.93;;;;;;;14.36;100.00;99847.34;4925474;29;20032;-83
2022/05/06 04:18:12;;;;;;;12.57;7.22;;;;;;;14.12;100.00;99843.41;4923825;29;20409;-84
2022/05/06 04:23:29;;;;;;;17.55;8.50;;;;;;;14.25;100.00;99842.63;4918757;29;20038;-84
2022/05/06 04:26:14;;;;;;;14.88;8.00;;;;;;;14.10;100.00;99843.59;4924609;29;20535;-84
2022/05/06 04:28:40;;;;;;;17.30;8.60;;;;;;;14.13;100.00;99840.53;4921599;29;20115;-86
2022/05/06 04:31:07;;;;;;;16.33;7.72;;;;;;;13.95;100.00;99840.28;4923846;29;20037;-84
2022/05/06 04:33:34;;;;;;;15.48;7.57;;;;;;;13.99;100.00;99841.53;4922556;29;20032;-86
2022/05/06 04:36:00;;;;;;;14.23;8.02;;;;;;;14.08;100.00;99848.25;4922608;29;20036;-85
2022/05/06 04:38:27;;;;;;;15.02;8.18;;;;;;;14.06;100.00;99845.00;4920792;29;20027;-85
2022/05/06 04:40:56;;;;;;;13.60;7.45;;;;;;;13.96;100.00;99850.63;4924858;29;20537;-85
2022/05/06 04:43:22;;;;;;;13.57;7.35;;;;;;;13.72;100.00;99854.56;4925307;29;20049;-84
2022/05/06 04:45:51;;;;;;;14.27;7.28;;;;;;;13.87;100.00;99859.75;4922308;29;20032;-84
2022/05/06 04:48:17;;;;;;;14.68;8.15;;;;;;;13.82;100.00;99862.13;4927679;29;20032;-84
2022/05/06 04:50:44;;;;;;;12.35;7.13;;;;;;;13.91;100.00;99860.97;4924383;29;20087;-83
2022/05/06 04:53:10;;;;;;;13.02;7.60;;;;;;;13.77;100.00;99862.75;4925606;29;20035;-84
2022/05/06 04:55:46;;;;;;;15.40;7.90;;;;;;;13.85;100.00;99859.09;4921875;29;20031;-86
2022/05/06 04:58:14;;;;;;;14.85;8.43;;;;;;;13.80;100.00;99857.06;4920007;29;20079;-86
2022/05/06 05:00:40;;;;;;;11.90;6.68;;;;;;;14.00;100.00;99861.63;4926592;29;20035;-85
2022/05/06 05:03:07;;;;;;;12.55;7.78;;;;;;;13.72;100.00;99849.31;4923554;29;20039;-85
2022/05/06 05:05:32;;;;;;;10.60;6.72;;;;;;;13.85;100.00;99844.09;4925581;29;20039;-85
2022/05/06 05:07:58;;;;;;;12.30;6.28;;;;;;;13.88;100.00;99840.25;4916729;29;20072;-84
2022/05/06 05:10:24;;;;;;;13.55;6.88;;;;;;;14.04;100.00;99854.94;4922296;29;20036;-84
2022/05/06 05:12:50;;;;;;;10.07;6.03;;;;;;;14.23;100.00;99849.94;4925100;29;20059;-84
2022/05/06 05:15:15;;;;;;;11.15;6.50;;;;;;;14.04;100.00;99847.03;4920485;29;20039;-84
2022/05/06 05:17:45;;;;;;;13.75;6.93;;;;;;;14.27;100.00;99848.50;4923508;29;20024;-85
2022/05/06 05:20:12;;;;;;;11.20;6.90;;;;;;;14.33;100.00;99857.47;4914650;29;20035;-85
2022/05/06 05:22:38;;;;;;;16.02;7.78;;;;;;;14.35;100.00;99861.56;4924197;29;20071;-85
2022/05/06 05:25:05;;;;;;;20.38;7.50;;;;;;;14.35;100.00;99848.34;4923935;29;20418;-85
2022/05/06 05:27:31;;;;;;;11.73;6.45;;;;;;;14.46;100.00;99851.41;4921626;29;20439;-84
2022/05/06 05:29:57;;;;;;;10.85;6.07;;;;;;;14.32;100.00;99853.22;4924042;29;20028;-84
2022/05/06 05:32:23;;;;;;;10.57;5.85;;;;;;;14.53;100.00;99839.00;4924046;29;20039;-86
2022/05/06 05:34:49;;;;;;;11.00;6.00;;;;;;;14.68;100.00;99841.50;4923488;29;20028;-86
2022/05/06 05:37:14;;;;;;;9.90;5.97;;;;;;;14.80;100.00;99833.81;4918987;29;20348;-88
2022/05/06 05:39:40;;;;;;;11.02;5.10;;;;;;;14.96;100.00;99841.34;4908246;29;20040;-86
2022/05/06 05:42:06;;;;;;;8.20;5.28;;;;;;;15.05;100.00;99841.13;4924580;29;20032;-87
2022/05/06 05:50:04;;;;;;;11.27;5.53;;;;;;;15.07;100.00;99825.88;4918649;29;20076;-86
2022/05/06 05:52:29;;;;;;;9.48;5.28;;;;;;;14.79;100.00;99821.63;4922014;29;20473;-85
2022/05/06 05:54:55;;;;;;;14.13;6.00;;;;;;;14.99;100.00;99825.06;4933084;29;20029;-85
2022/05/06 05:57:20;;;;;;;12.85;6.07;;;;;;;14.98;100.00;99826.09;4926526;29;20028;-86
2022/05/06 05:59:47;;;;;;;9.88;5.22;;;;;;;14.57;100.00;99824.41;4928616;29;20486;-86
2022/05/06 06:02:16;;;;;;;13.00;5.55;;;;;;;14.90;100.00;99823.63;4922089;29;20454;-88
2022/05/06 06:04:43;;;;;;;11.45;5.90;;;;;;;14.71;100.00;99826.06;4925816;29;20036;-87
2022/05/06 06:07:09;;;;;;;14.65;5.30;;;;;;;14.66;100.00;99817.91;4931681;29;20035;-86
2022/05/06 06:09:34;;;;;;;9.60;4.85;;;;;;;15.23;100.00;99812.22;4926086;29;20518;-86
2022/05/06 06:12:02;;;;;;;9.80;5.28;;;;;;;14.94;100.00;99809.00;4923608;29;20047;-87
2022/05/06 06:14:28;;;;;;;12.20;4.97;;;;;;;15.22;100.00;99815.06;4912387;29;20079;-88
2022/05/06 06:16:54;;;;;;;14.02;5.13;;;;;;;15.55;100.00;99820.31;4923102;29;20078;-87
2022/05/06 06:19:19;;;;;;;10.65;5.00;;;;;;;15.53;100.00;99817.06;4910175;29;20565;-89
2022/05/06 06:21:45;;;;;;;7.63;4.43;;;;;;;15.68;100.00;99827.38;4923949;29;20474;-87
2022/05/06 06:24:12;;;;;;;11.13;5.03;;;;;;;15.59;100.00;99825.19;4927638;29;20147;-88
2022/05/06 06:26:37;;;;;;;11.70;5.70;;;;;;;15.39;100.00;99820.75;4931401;29;20554;-87
2022/05/06 06:29:03;;;;;;;7.20;4.30;;;;;;;15.54;100.00;99816.03;4925203;29;20035;-86
2022/05/06 06:31:31;;;;;;;7.82;4.63;;;;;;;15.57;100.00;99812.97;4929933;29;20162;-86
2022/05/06 06:33:58;;;;;;;9.77;4.40;;;;;;;15.66;100.00;99810.06;4930333;29;20070;-87
2022/05/06 06:36:24;;;;;;;8.05;4.57;;;;;;;16.07;100.00;99795.66;4917080;29;20040;-88
2022/05/06 06:38:50;;;;;;;10.75;4.75;;;;;;;16.19;100.00;99797.66;4910357;29;20036;-83
2022/05/06 06:41:16;;;;;;;12.10;5.25;;;;;;;16.10;100.00;99795.25;4919096;29;20119;-83
2022/05/06 06:43:41;;;;;;;8.40;5.35;;;;;;;15.90;100.00;99799.81;4926791;29;20028;-82
2022/05/06 06:46:07;;;;;;;10.88;5.00;;;;;;;16.23;100.00;99793.56;4925590;29;20036;-82
2022/05/06 06:48:33;;;;;;;10.55;4.93;;;;;;;16.47;100.00;99793.81;4922294;29;20035;-82
2022/05/06 06:50:58;;;;;;;8.52;4.82;;;;;;;16.46;100.00;99781.59;4919411;29;20178;-84
2022/05/06 06:53:26;;;;;;;10.63;5.35;;;;;;;16.53;100.00;99798.25;4903795;29;20047;-82
2022/05/06 06:55:51;;;;;;;8.05;4.68;;;;;;;16.37;100.00;99803.06;4917579;29;20478;-83
2022/05/06 06:58:17;;;;;;;12.02;5.28;;;;;;;16.64;100.00;99794.09;4905071;29;20021;-85
2022/05/06 07:00:43;;;;;;;12.32;5.07;;;;;;;16.44;100.00;99808.31;4920241;29;20125;-85
2022/05/06 07:03:11;;;;;;;7.85;4.70;;;;;;;16.94;100.00;99804.88;4926309;29;20046;-85
2022/05/06 07:05:37;;;;;;;7.00;5.03;;;;;;;17.31;100.00;99803.34;4920900;29;20123;-84
2022/05/06 07:13:32;;;;;;;12.05;6.20;;;;;;;16.62;100.00;99807.56;4920113;29;20040;-85
2022/05/06 07:15:58;;;;;;;17.15;6.43;;;;;;;16.64;100.00;99817.97;4915109;29;20032;-87
2022/05/06 07:18:24;;;;;;;9.82;5.55;;;;;;;16.77;100.00;99815.19;4920352;29;20024;-86
2022/05/06 07:20:50;;;;;;;7.75;5.82;;;;;;;16.54;100.00;99821.09;4919696;29;20731;-86
2022/05/06 07:23:16;;;;;;;13.98;5.57;;;;;;;16.27;100.00;99816.75;4921741;29;20055;-86
2022/05/06 07:25:41;;;;;;;13.23;5.40;;;;;;;16.47;100.00;99820.31;4921478;29;20032;-87
2022/05/06 07:28:08;;;;;;;9.25;6.00;;;;;;;16.90;100.00;99814.28;4923235;29;20427;-85
2022/05/06 07:30:33;;;;;;;12.90;6.05;;;;;;;16.56;100.00;99809.22;4921809;29;20048;-86
2022/05/06 07:33:00;;;;;;;14.05;6.03;;;;;;;17.22;100.00;99808.13;4924588;29;20528;-86
2022/05/06 07:35:26;;;;;;;10.85;5.40;;;;;;;17.22;100.00;99808.91;4924425;29;20031;-88
2022/05/06 07:37:51;;;;;;;9.88;5.38;;;;;;;17.39;100.00;99805.69;4924034;29;20036;-87
2022/05/06 07:40:17;;;;;;;11.63;5.53;;;;;;;17.95;100.00;99797.69;4923971;29;20067;-86
2022/05/06 07:42:45;;;;;;;10.43;5.68;;;;;;;17.74;100.00;99802.44;4927152;29;20386;-86
2022/05/06 07:45:11;;;;;;;8.68;5.18;;;;;;;17.95;100.00;99798.47;4923829;29;20506;-86
2022/05/06 07:47:38;;;;;;;9.55;5.50;;;;;;;17.78;100.00;99795.63;4923709;29;20479;-86
2022/05/06 07:50:05;;;;;;;10.13;5.88;;;;;;;17.61;100.00;99802.59;4925203;29;20490;-85
2022/05/06 07:52:31;;;;;;;9.48;5.78;;;;;;;17.35;100.00;99800.00;4922281;29;20517;-86
2022/05/06 07:54:57;;;;;;;10.50;5.50;;;;;;;17.05;100.00;99810.50;4927657;29;20027;-86
2022/05/06 07:57:22;;;;;;;9.68;5.60;;;;;;;17.26;100.00;99796.03;4926375;29;20040;-88
2022/05/06 07:59:49;;;;;;;8.57;5.97;;;;;;;17.46;100.00;99801.09;4922510;29;20070;-88
2022/05/06 08:04:59;;;;;;;10.43;6.00;;;;;;;16.94;100.00;99799.56;4923029;29;20036;-86
2022/05/06 08:07:24;;;;;;;10.15;5.80;;;;;;;17.16;100.00;99791.22;4923211;29;20036;-86
2022/05/06 08:09:50;;;;;;;9.93;5.90;;;;;;;16.72;100.00;99798.31;4919946;29;20048;-85
2022/05/06 08:12:16;;;;;;;12.55;6.63;;;;;;;17.16;100.00;99785.91;4925978;29;20028;-85
2022/05/06 08:14:43;;;;;;;12.20;5.38;;;;;;;18.03;100.00;99793.94;4922357;29;20118;-86
2022/05/06 08:17:09;;;;;;;14.38;6.53;;;;;;;17.39;100.00;99784.47;4926722;29;20082;-87
2022/05/06 08:19:35;;;;;;;12.98;6.32;;;;;;;17.68;100.00;99779.41;4924028;29;20024;-87
2022/05/06 08:22:00;;;;;;;15.57;6.72;;;;;;;18.01;100.00;99764.09;4925670;29;20125;-87
2022/05/06 08:24:29;;;;;;;10.20;6.40;;;;;;;17.75;100.00;99760.75;4923259;29;20035;-87
2022/05/06 08:26:54;;;;;;;11.15;6.85;;;;;;;17.87;100.00;99763.44;4924721;29;20529;-88
2022/05/06 08:29:22;;;;;;;15.50;7.40;;;;;;;16.84;100.00;99770.88;4928113;29;20051;-87
2022/05/06 08:31:47;;;;;;;13.25;7.30;;;;;;;17.55;100.00;99781.22;4925188;29;20114;-87
2022/05/06 08:34:14;;;;;;;11.90;6.30;;;;;;;18.23;100.00;99775.03;4922480;29;20047;-87
2022/05/06 08:36:42;;;;;;;11.50;6.47;;;;;;;18.55;100.00;99764.94;4925629;29;20039;-87
2022/05/06 08:39:12;;;;;;;11.88;6.80;;;;;;;18.67;100.00;99767.63;4909865;29;20028;-88
2022/05/06 08:41:39;;;;;;;12.48;7.03;;;;;;;18.30;100.00;99772.28;4923998;29;20075;-87
2022/05/06 08:52:32;;;;;;;10.80;6.10;;;;;;;18.53;100.00;99771.53;4922481;29;20164;-87
2022/05/06 08:55:00;;;;;;;10.07;6.20;;;;;;;18.48;100.00;99763.44;4922757;29;20110;-87
2022/05/06 08:57:25;;;;;;;9.88;6.35;;;;;;;18.69;100.00;99784.16;4925751;29;20046;-87
2022/05/06 08:59:52;;;;;;;9.93;6.38;;;;;;;18.79;100.00;99775.59;4924575;29;20036;-87
2022/05/06 09:02:19;;;;;;;13.85;6.78;;;;;;;18.89;100.00;99780.34;4922079;29;20426;-88
2022/05/06 09:04:44;;;;;;;9.63;6.78;;;;;;;19.22;100.00;99770.97;4921643;29;20035;-88
2022/05/06 09:07:21;;;;;;;11.07;6.28;;;;;;;19.63;100.00;99784.31;4923928;29;20043;-87
2022/05/06 09:10:15;;;;;;;12.48;7.10;;;;;;;19.63;100.00;99775.50;4924100;29;20024;-87
2022/05/06 09:12:42;;;;;;;14.95;7.07;;;;;;;19.40;100.00;99767.38;4922082;29;20028;-88
2022/05/06 09:17:56;;;;;;;10.43;7.20;;;;;;;19.55;100.00;99780.19;4920494;29;20043;-87
2022/05/06 09:20:22;;;;;;;13.02;6.47;;;;;;;20.11;100.00;99784.97;4928088;29;20032;-88
2022/05/06 09:22:51;;;;;;;15.00;7.20;;;;;;;19.06;100.00;99791.13;4931726;29;20621;-88
2022/05/06 09:25:37;;;;;;;13.77;7.10;;;;;;;19.08;100.00;99788.25;4920497;29;20027;-87
2022/05/06 09:28:04;;;;;;;15.68;7.18;;;;;;;19.54;100.00;99796.38;4924988;29;20095;-86
2022/05/06 09:30:29;;;;;;;10.52;6.60;;;;;;;18.88;100.00;99800.03;4928093;29;20040;-86
2022/05/06 09:32:56;;;;;;;10.77;6.10;;;;;;;18.94;100.00;99793.75;4925287;29;20032;-87
2022/05/06 09:35:32;;;;;;;11.80;6.55;;;;;;;18.74;100.00;99801.28;4922662;29;20042;-87
2022/05/06 09:38:02;;;;;;;9.95;6.63;;;;;;;18.86;100.00;99799.41;4923427;29;20043;-85
2022/05/06 09:40:30;;;;;;;10.60;5.63;;;;;;;19.35;100.00;99801.84;4928185;29;20075;-85
2022/05/06 09:42:55;;;;;;;12.13;6.78;;;;;;;19.32;100.00;99809.50;4922988;29;20036;-86
2022/05/06 09:45:37;;;;;;;7.60;6.38;;;;;;;19.44;100.00;99807.63;4924822;29;20082;-85
2022/05/06 09:48:04;;;;;;;9.68;7.22;;;;;;;19.54;100.00;99804.34;4920295;29;20028;-86
2022/05/06 09:50:36;;;;;;;14.75;6.72;;;;;;;19.80;100.00;99808.34;4923168;29;20510;-87
2022/05/06 09:53:05;;;;;;;11.70;7.88;;;;;;;19.09;100.00;99805.84;4923715;29;20095;-87
2022/05/06 09:55:31;;;;;;;12.27;7.75;;;;;;;19.17;100.00;99808.13;4922520;29;20050;-87
2022/05/06 09:57:59;;;;;;;10.18;6.55;;;;;;;20.02;100.00;99805.06;4923989;29;20031;-86
2022/05/06 10:00:27;;;;;;;9.30;6.43;;;;;;;19.96;100.00;99804.16;4927550;29;20074;-86
2022/05/06 10:02:57;;;;;;;7.93;6.03;;;;;;;19.89;100.00;99808.78;4923356;29;20059;-87
2022/05/06 10:05:24;;;;;;;8.85;7.03;;;;;;;20.09;99.73;99803.06;4926566;29;20034;-88
2022/05/06 10:08:01;;;;;;;10.93;6.75;;;;;;;20.13;99.31;99803.38;4926484;29;20067;-87
2022/05/06 10:10:29;;;;;;;8.60;5.40;;;;;;;19.86;98.64;99806.59;4923528;29;20054;-88
2022/05/06 10:12:59;;;;;;;7.38;5.05;;;;;;;19.16;100.00;99798.53;4924875;29;20079;-88
2022/05/06 10:15:30;;;;;;;6.82;5.20;;;;;;;20.60;98.06;99796.97;4926448;29;20043;-87
2022/05/06 10:17:58;;;;;;;8.60;6.45;;;;;;;20.02;97.64;99805.06;4929650;29;20119;-86
2022/05/06 10:20:33;;;;;;;6.80;5.65;;;;;;;20.47;97.94;99810.66;4923680;29;20367;-87
2022/05/06 10:23:02;;;;;;;8.20;5.78;;;;;;;20.65;97.04;99813.09;4923916;29;20042;-87
2022/05/06 10:25:40;;;;;;;7.60;6.50;;;;;;;20.47;97.40;99805.31;4923754;29;20099;-87
2022/05/06 10:34:17;;;;;;;7.53;6.57;;;;;;;19.68;100.00;99812.91;4923932;29;20058;-87
2022/05/06 10:36:42;;;;;;;7.63;6.93;;;;;;;19.83;100.00;99810.53;4926765;29;20059;-87
2022/05/06 10:39:26;;;;;;;9.93;6.90;;;;;;;20.62;99.63;99823.41;4924628;29;20059;-86
2022/05/06 10:42:05;;;;;;;9.70;5.70;;;;;;;20.02;100.00;99817.59;4923833;29;20035;-85
2022/05/06 10:44:36;;;;;;;8.90;6.72;;;;;;;19.04;100.00;99813.69;4925951;29;20032;-86
2022/05/06 10:47:19;;;;;;;11.20;6.22;;;;;;;19.25;100.00;99813.09;4925846;29;21749;-88
2022/05/06 10:49:50;;;;;;;9.07;5.53;;;;;;;19.12;100.00;99814.13;4925747;29;20056;-88
2022/05/06 10:52:18;;;;;;;7.80;5.47;;;;;;;19.58;100.00;99818.03;4921009;29;20048;-86
2022/05/06 10:54:49;;;;;;;8.30;5.40;;;;;;;19.75;100.00;99808.25;4925890;29;20031;-86
2022/05/06 10:57:20;;;;;;;8.32;5.68;;;;;;;19.58;100.00;99802.03;4925702;29;20040;-86
2022/05/06 10:59:56;;;;;;;9.00;6.00;;;;;;;18.84;100.00;99812.13;4926277;29;20044;-89
2022/05/06 11:02:27;;;;;;;13.05;5.63;;;;;;;19.01;100.00;99809.66;4920781;29;20114;-87
2022/05/06 11:04:54;;;;;;;6.35;4.82;;;;;;;18.65;100.00;99812.22;4928292;29;20043;-86
2022/05/06 11:07:20;;;;;;;8.30;5.75;;;;;;;19.09;100.00;99811.16;4925887;29;20067;-85
2022/05/06 11:09:47;;;;;;;7.70;5.65;;;;;;;18.31;100.00;99803.97;4929413;29;20043;-89
2022/05/06 11:12:35;;;;;;;6.10;5.28;;;;;;;18.75;100.00;99816.19;4925993;29;20095;-87
2022/05/06 11:15:03;;;;;;;7.32;6.20;;;;;;;18.32;100.00;99826.84;4927276;29;20413;-87
2022/05/06 11:17:33;;;;;;;7.85;5.20;;;;;;;19.50;100.00;99814.69;4926251;29;20118;-86
2022/05/06 11:20:00;;;;;;;5.97;4.75;;;;;;;20.20;100.00;99805.91;4924722;29;20474;-86
2022/05/06 11:22:25;;;;;;;12.10;5.60;;;;;;;21.03;97.88;99807.25;4926541;29;20059;-85
2022/05/06 11:24:58;;;;;;;6.70;4.85;;;;;;;21.29;97.97;99791.59;4922942;29;20115;-88
2022/05/06 11:27:24;;;;;;;5.73;5.03;;;;;;;21.09;97.81;99806.28;4922300;29;20038;-86
2022/05/06 11:29:58;;;;;;;9.27;5.57;;;;;;;20.08;98.45;99803.28;4923539;29;20337;-85
2022/05/06 11:32:28;;;;;;;9.00;5.55;;;;;;;19.65;100.00;99800.88;4924013;29;20081;-87
2022/05/06 11:35:09;;;;;;;11.43;5.85;;;;;;;19.48;100.00;99792.81;4925946;29;20028;-86
2022/05/06 11:37:39;;;;;;;7.00;5.15;;;;;;;19.95;100.00;99802.56;4923432;29;20031;-85
2022/05/06 11:40:32;;;;;;;7.82;5.18;;;;;;;20.03;100.00;99809.34;4925378;29;20466;-85
2022/05/06 11:43:03;;;;;;;8.77;5.80;;;;;;;19.40;100.00;99803.81;4919939;29;20601;-87
2022/05/06 11:48:20;;;;;;;7.03;4.95;;;;;;;18.64;100.00;99810.59;4925889;29;20146;-86
2022/05/06 11:50:49;;;;;;;8.30;5.20;;;;;;;18.82;100.00;99806.25;4926537;29;20042;-87
2022/05/06 11:53:17;;;;;;;6.90;5.22;;;;;;;18.03;100.00;99804.56;4919416;29;20430;-86
2022/05/06 11:55:46;;;;;;;10.70;5.45;;;;;;;17.97;100.00;99811.53;4921651;29;20394;-87
2022/05/06 11:58:14;;;;;;;9.23;5.35;;;;;;;17.72;100.00;99809.81;4924168;29;20578;-86
2022/05/06 12:00:41;;;;;;;10.35;4.90;;;;;;;17.90;100.00;99801.00;4910716;29;20135;-86
2022/05/06 12:03:09;;;;;;;8.60;6.15;;;;;;;18.05;100.00;99803.28;4925725;29;20498;-88
2022/05/06 12:05:36;;;;;;;8.07;5.28;;;;;;;17.88;100.00;99796.94;4911528;29;20032;-86
2022/05/06 12:08:03;;;;;;;8.70;5.15;;;;;;;17.97;100.00;99803.56;4924735;29;20050;-88